sensor_id;sensor_type;location;lat;lon;timestamp;temperature;humidity
7844;DHT22;3967;48.702;9.326;2023-09-19T00:00:43;17.80;99.90
7844;DHT22;3967;48.702;9.326;2023-09-19T00:03:10;17.70;99.90
7844;DHT22;3967;48.702;9.326;2023-09-19T00:05:39;17.70;99.90
7844;DHT22;3967;48.702;9.326;2023-09-19T00:08:06;17.60;99.90
7844;DHT22;3967;48.702;9.326;2023-09-19T00:10:33;17.70;99.90
7844;DHT22;3967;48.702;9.326;2023-09-19T00:13:04;17.70;99.90
7844;DHT22;3967;48.702;9.326;2023-09-19T00:15:42;17.70;99.90
7844;DHT22;3967;48.702;9.326;2023-09-19T00:18:09;17.70;99.90
7844;DHT22;3967;48.702;9.326;2023-09-19T00:20:37;17.70;99.90
7844;DHT22;3967;48.702;9.326;2023-09-19T00:23:05;17.80;99.90
7844;DHT22;3967;48.702;9.326;2023-09-19T00:25:35;17.90;99.90
7844;DHT22;3967;48.702;9.326;2023-09-19T00:28:04;17.90;99.90
7844;DHT22;3967;48.702;9.326;2023-09-19T00:30:32;17.90;99.90
7844;DHT22;3967;48.702;9.326;2023-09-19T00:32:59;17.80;99.90
7844;DHT22;3967;48.702;9.326;2023-09-19T00:35:27;17.80;99.90
7844;DHT22;3967;48.702;9.326;2023-09-19T00:37:54;17.80;99.90
7844;DHT22;3967;48.702;9.326;2023-09-19T00:40:22;17.80;99.90
7844;DHT22;3967;48.702;9.326;2023-09-19T00:42:49;17.80;99.90
7844;DHT22;3967;48.702;9.326;2023-09-19T00:45:17;17.70;99.90
7844;DHT22;3967;48.702;9.326;2023-09-19T00:47:50;17.80;99.90
7844;DHT22;3967;48.702;9.326;2023-09-19T00:50:19;17.90;99.90
7844;DHT22;3967;48.702;9.326;2023-09-19T00:52:53;17.90;99.90
7844;DHT22;3967;48.702;9.326;2023-09-19T00:55:24;18.00;99.90
7844;DHT22;3967;48.702;9.326;2023-09-19T00:57:51;17.90;99.90
7844;DHT22;3967;48.702;9.326;2023-09-19T01:00:19;18.00;99.90
7844;DHT22;3967;48.702;9.326;2023-09-19T01:02:47;17.90;99.90
7844;DHT22;3967;48.702;9.326;2023-09-19T01:05:15;17.90;99.90
7844;DHT22;3967;48.702;9.326;2023-09-19T01:07:42;17.90;99.90
7844;DHT22;3967;48.702;9.326;2023-09-19T01:10:14;17.80;99.90
7844;DHT22;3967;48.702;9.326;2023-09-19T01:12:48;17.80;99.90
7844;DHT22;3967;48.702;9.326;2023-09-19T01:23:35;17.70;99.90
7844;DHT22;3967;48.702;9.326;2023-09-19T01:26:06;17.80;99.90
7844;DHT22;3967;48.702;9.326;2023-09-19T01:31:24;17.90;99.90
7844;DHT22;3967;48.702;9.326;2023-09-19T01:34:02;18.00;99.90
7844;DHT22;3967;48.702;9.326;2023-09-19T01:36:33;18.10;99.90
7844;DHT22;3967;48.702;9.326;2023-09-19T01:39:05;18.00;99.90
7844;DHT22;3967;48.702;9.326;2023-09-19T01:41:47;18.10;99.90
7844;DHT22;3967;48.702;9.326;2023-09-19T01:44:36;18.10;99.90
7844;DHT22;3967;48.702;9.326;2023-09-19T01:50:12;17.90;99.90
7844;DHT22;3967;48.702;9.326;2023-09-19T01:52:47;18.00;99.90
7844;DHT22;3967;48.702;9.326;2023-09-19T01:55:16;17.90;99.90
7844;DHT22;3967;48.702;9.326;2023-09-19T01:58:07;17.90;99.90
7844;DHT22;3967;48.702;9.326;2023-09-19T02:00:37;18.00;99.90
7844;DHT22;3967;48.702;9.326;2023-09-19T02:03:04;18.00;99.90
7844;DHT22;3967;48.702;9.326;2023-09-19T02:05:31;18.00;99.90
7844;DHT22;3967;48.702;9.326;2023-09-19T02:07:59;18.10;99.90
7844;DHT22;3967;48.702;9.326;2023-09-19T02:10:27;18.00;99.90
7844;DHT22;3967;48.702;9.326;2023-09-19T02:12:54;18.10;99.90
7844;DHT22;3967;48.702;9.326;2023-09-19T02:15:20;18.10;99.90
7844;DHT22;3967;48.702;9.326;2023-09-19T02:17:48;18.10;99.90
7844;DHT22;3967;48.702;9.326;2023-09-19T02:20:15;18.10;99.90
7844;DHT22;3967;48.702;9.326;2023-09-19T02:22:43;18.10;99.90
7844;DHT22;3967;48.702;9.326;2023-09-19T02:25:11;18.10;99.90
7844;DHT22;3967;48.702;9.326;2023-09-19T02:27:37;18.00;99.90
7844;DHT22;3967;48.702;9.326;2023-09-19T02:30:06;18.20;99.90
7844;DHT22;3967;48.702;9.326;2023-09-19T02:32:33;18.20;99.90
7844;DHT22;3967;48.702;9.326;2023-09-19T02:35:03;18.10;99.90
7844;DHT22;3967;48.702;9.326;2023-09-19T02:37:32;18.10;99.90
7844;DHT22;3967;48.702;9.326;2023-09-19T02:39:59;18.10;99.90
7844;DHT22;3967;48.702;9.326;2023-09-19T02:42:26;18.20;99.90
7844;DHT22;3967;48.702;9.326;2023-09-19T02:44:53;18.00;99.90
7844;DHT22;3967;48.702;9.326;2023-09-19T02:47:20;18.10;99.90
7844;DHT22;3967;48.702;9.326;2023-09-19T02:49:47;18.10;99.90
7844;DHT22;3967;48.702;9.326;2023-09-19T02:52:14;18.20;99.90
7844;DHT22;3967;48.702;9.326;2023-09-19T02:54:41;18.20;99.90
7844;DHT22;3967;48.702;9.326;2023-09-19T02:57:11;18.20;99.90
7844;DHT22;3967;48.702;9.326;2023-09-19T02:59:40;18.20;99.90
7844;DHT22;3967;48.702;9.326;2023-09-19T03:02:08;18.00;99.90
7844;DHT22;3967;48.702;9.326;2023-09-19T03:04:36;18.00;99.90
7844;DHT22;3967;48.702;9.326;2023-09-19T03:07:03;18.00;99.90
7844;DHT22;3967;48.702;9.326;2023-09-19T03:09:30;17.90;99.90
7844;DHT22;3967;48.702;9.326;2023-09-19T03:11:57;17.90;99.90
7844;DHT22;3967;48.702;9.326;2023-09-19T03:14:24;17.80;99.90
7844;DHT22;3967;48.702;9.326;2023-09-19T03:16:51;17.80;99.90
7844;DHT22;3967;48.702;9.326;2023-09-19T03:19:19;17.80;99.90
7844;DHT22;3967;48.702;9.326;2023-09-19T03:21:47;17.70;99.90
7844;DHT22;3967;48.702;9.326;2023-09-19T03:24:15;17.70;99.90
7844;DHT22;3967;48.702;9.326;2023-09-19T03:26:42;17.80;99.90
7844;DHT22;3967;48.702;9.326;2023-09-19T03:29:09;17.90;99.90
7844;DHT22;3967;48.702;9.326;2023-09-19T03:31:36;17.90;99.90
7844;DHT22;3967;48.702;9.326;2023-09-19T03:34:03;17.90;99.90
7844;DHT22;3967;48.702;9.326;2023-09-19T03:36:30;17.90;99.90
7844;DHT22;3967;48.702;9.326;2023-09-19T03:38:57;17.90;99.90
7844;DHT22;3967;48.702;9.326;2023-09-19T03:41:24;17.90;99.90
7844;DHT22;3967;48.702;9.326;2023-09-19T03:43:51;17.90;99.90
7844;DHT22;3967;48.702;9.326;2023-09-19T03:46:18;17.90;99.90
7844;DHT22;3967;48.702;9.326;2023-09-19T03:48:45;18.00;99.90
7844;DHT22;3967;48.702;9.326;2023-09-19T03:51:11;17.90;99.90
7844;DHT22;3967;48.702;9.326;2023-09-19T03:53:38;17.90;99.90
7844;DHT22;3967;48.702;9.326;2023-09-19T03:56:05;17.90;99.90
7844;DHT22;3967;48.702;9.326;2023-09-19T03:58:32;17.90;99.90
7844;DHT22;3967;48.702;9.326;2023-09-19T04:01:00;17.90;99.90
7844;DHT22;3967;48.702;9.326;2023-09-19T04:03:27;17.80;99.90
7844;DHT22;3967;48.702;9.326;2023-09-19T04:06:02;17.70;99.90
7844;DHT22;3967;48.702;9.326;2023-09-19T04:08:29;17.70;99.90
7844;DHT22;3967;48.702;9.326;2023-09-19T04:10:56;17.50;99.90
7844;DHT22;3967;48.702;9.326;2023-09-19T04:13:23;17.60;99.90
7844;DHT22;3967;48.702;9.326;2023-09-19T04:15:50;17.50;99.90
7844;DHT22;3967;48.702;9.326;2023-09-19T04:18:16;17.60;99.90
7844;DHT22;3967;48.702;9.326;2023-09-19T04:20:51;17.50;99.90
7844;DHT22;3967;48.702;9.326;2023-09-19T04:23:18;17.50;99.90
7844;DHT22;3967;48.702;9.326;2023-09-19T04:25:47;17.60;99.90
7844;DHT22;3967;48.702;9.326;2023-09-19T04:28:15;17.60;99.90
7844;DHT22;3967;48.702;9.326;2023-09-19T04:30:42;17.50;99.90
7844;DHT22;3967;48.702;9.326;2023-09-19T04:33:09;17.50;99.90
7844;DHT22;3967;48.702;9.326;2023-09-19T04:35:36;17.40;99.90
7844;DHT22;3967;48.702;9.326;2023-09-19T04:38:03;17.40;99.90
7844;DHT22;3967;48.702;9.326;2023-09-19T04:40:30;17.40;99.90
7844;DHT22;3967;48.702;9.326;2023-09-19T04:42:56;17.40;99.90
7844;DHT22;3967;48.702;9.326;2023-09-19T04:45:24;17.50;99.90
7844;DHT22;3967;48.702;9.326;2023-09-19T04:47:51;17.50;99.90
7844;DHT22;3967;48.702;9.326;2023-09-19T04:50:18;17.40;99.90
7844;DHT22;3967;48.702;9.326;2023-09-19T04:52:45;17.50;99.90
7844;DHT22;3967;48.702;9.326;2023-09-19T04:55:16;17.40;99.90
7844;DHT22;3967;48.702;9.326;2023-09-19T04:57:48;17.40;99.90
7844;DHT22;3967;48.702;9.326;2023-09-19T05:00:17;17.30;99.90
7844;DHT22;3967;48.702;9.326;2023-09-19T05:02:48;17.40;99.90
7844;DHT22;3967;48.702;9.326;2023-09-19T05:05:15;17.30;99.90
7844;DHT22;3967;48.702;9.326;2023-09-19T05:07:44;17.40;99.90
7844;DHT22;3967;48.702;9.326;2023-09-19T05:10:11;17.30;99.90
7844;DHT22;3967;48.702;9.326;2023-09-19T05:12:40;17.40;99.90
7844;DHT22;3967;48.702;9.326;2023-09-19T05:15:07;17.50;99.90
7844;DHT22;3967;48.702;9.326;2023-09-19T05:17:35;17.60;99.90
7844;DHT22;3967;48.702;9.326;2023-09-19T05:20:02;17.60;99.90
7844;DHT22;3967;48.702;9.326;2023-09-19T05:22:42;17.60;99.90
7844;DHT22;3967;48.702;9.326;2023-09-19T05:25:10;17.60;99.90
7844;DHT22;3967;48.702;9.326;2023-09-19T05:27:37;17.60;99.90
7844;DHT22;3967;48.702;9.326;2023-09-19T05:30:04;17.50;99.90
7844;DHT22;3967;48.702;9.326;2023-09-19T05:32:31;17.50;99.90
7844;DHT22;3967;48.702;9.326;2023-09-19T05:34:58;17.50;99.90
7844;DHT22;3967;48.702;9.326;2023-09-19T05:37:25;17.50;99.90
7844;DHT22;3967;48.702;9.326;2023-09-19T05:39:53;17.50;99.90
7844;DHT22;3967;48.702;9.326;2023-09-19T05:42:20;17.40;99.90
7844;DHT22;3967;48.702;9.326;2023-09-19T05:44:47;17.30;99.90
7844;DHT22;3967;48.702;9.326;2023-09-19T05:47:14;17.50;99.90
7844;DHT22;3967;48.702;9.326;2023-09-19T05:49:40;17.60;99.90
7844;DHT22;3967;48.702;9.326;2023-09-19T05:52:08;17.50;99.90
7844;DHT22;3967;48.702;9.326;2023-09-19T05:54:34;17.60;99.90
7844;DHT22;3967;48.702;9.326;2023-09-19T05:57:01;17.60;99.90
7844;DHT22;3967;48.702;9.326;2023-09-19T05:59:28;17.60;99.90
7844;DHT22;3967;48.702;9.326;2023-09-19T06:01:55;17.70;99.90
7844;DHT22;3967;48.702;9.326;2023-09-19T06:04:22;17.70;99.90
7844;DHT22;3967;48.702;9.326;2023-09-19T06:06:49;17.70;99.90
7844;DHT22;3967;48.702;9.326;2023-09-19T06:09:16;17.80;99.90
7844;DHT22;3967;48.702;9.326;2023-09-19T06:11:43;17.80;99.90
7844;DHT22;3967;48.702;9.326;2023-09-19T06:14:10;17.90;99.90
7844;DHT22;3967;48.702;9.326;2023-09-19T06:16:38;17.90;99.90
7844;DHT22;3967;48.702;9.326;2023-09-19T06:19:06;17.90;99.90
7844;DHT22;3967;48.702;9.326;2023-09-19T06:21:36;17.90;99.90
7844;DHT22;3967;48.702;9.326;2023-09-19T06:24:02;17.90;99.90
7844;DHT22;3967;48.702;9.326;2023-09-19T06:26:29;17.80;99.90
7844;DHT22;3967;48.702;9.326;2023-09-19T06:28:57;17.70;99.90
7844;DHT22;3967;48.702;9.326;2023-09-19T06:31:26;17.60;99.90
7844;DHT22;3967;48.702;9.326;2023-09-19T06:33:53;17.50;99.90
7844;DHT22;3967;48.702;9.326;2023-09-19T06:36:20;17.30;99.90
7844;DHT22;3967;48.702;9.326;2023-09-19T06:38:46;17.20;99.90
7844;DHT22;3967;48.702;9.326;2023-09-19T06:41:13;17.20;99.90
7844;DHT22;3967;48.702;9.326;2023-09-19T06:43:42;17.20;99.90
7844;DHT22;3967;48.702;9.326;2023-09-19T06:46:09;17.20;99.90
7844;DHT22;3967;48.702;9.326;2023-09-19T06:48:36;17.10;99.90
7844;DHT22;3967;48.702;9.326;2023-09-19T06:51:03;17.10;99.90
7844;DHT22;3967;48.702;9.326;2023-09-19T06:53:32;17.00;99.90
7844;DHT22;3967;48.702;9.326;2023-09-19T06:56:01;17.00;99.90
7844;DHT22;3967;48.702;9.326;2023-09-19T06:58:28;17.10;99.90
7844;DHT22;3967;48.702;9.326;2023-09-19T07:00:55;17.10;99.90
7844;DHT22;3967;48.702;9.326;2023-09-19T07:03:23;17.20;99.90
7844;DHT22;3967;48.702;9.326;2023-09-19T07:05:53;17.40;99.90
7844;DHT22;3967;48.702;9.326;2023-09-19T07:08:22;17.50;99.90
7844;DHT22;3967;48.702;9.326;2023-09-19T07:10:49;17.50;99.90
7844;DHT22;3967;48.702;9.326;2023-09-19T07:13:16;17.70;99.90
7844;DHT22;3967;48.702;9.326;2023-09-19T07:15:44;17.70;99.90
7844;DHT22;3967;48.702;9.326;2023-09-19T07:18:14;17.90;99.90
7844;DHT22;3967;48.702;9.326;2023-09-19T07:20:44;18.00;99.90
7844;DHT22;3967;48.702;9.326;2023-09-19T07:23:21;18.20;99.90
7844;DHT22;3967;48.702;9.326;2023-09-19T07:25:49;18.20;99.90
7844;DHT22;3967;48.702;9.326;2023-09-19T07:28:16;18.30;99.90
7844;DHT22;3967;48.702;9.326;2023-09-19T07:30:43;18.30;99.90
7844;DHT22;3967;48.702;9.326;2023-09-19T07:33:10;18.40;99.90
7844;DHT22;3967;48.702;9.326;2023-09-19T07:35:40;18.40;99.90
7844;DHT22;3967;48.702;9.326;2023-09-19T07:38:07;18.40;99.90
7844;DHT22;3967;48.702;9.326;2023-09-19T07:40:34;18.60;99.90
7844;DHT22;3967;48.702;9.326;2023-09-19T07:43:01;18.60;99.90
7844;DHT22;3967;48.702;9.326;2023-09-19T07:45:28;18.60;99.90
7844;DHT22;3967;48.702;9.326;2023-09-19T07:47:56;18.70;99.90
7844;DHT22;3967;48.702;9.326;2023-09-19T07:50:23;18.80;99.90
7844;DHT22;3967;48.702;9.326;2023-09-19T07:52:50;18.90;99.90
7844;DHT22;3967;48.702;9.326;2023-09-19T07:55:17;19.00;99.90
7844;DHT22;3967;48.702;9.326;2023-09-19T07:57:46;19.10;99.90
7844;DHT22;3967;48.702;9.326;2023-09-19T08:00:13;19.10;99.90
7844;DHT22;3967;48.702;9.326;2023-09-19T08:02:41;19.30;99.90
7844;DHT22;3967;48.702;9.326;2023-09-19T08:05:12;19.50;99.90
7844;DHT22;3967;48.702;9.326;2023-09-19T08:07:44;19.30;99.90
7844;DHT22;3967;48.702;9.326;2023-09-19T08:10:12;19.50;99.90
7844;DHT22;3967;48.702;9.326;2023-09-19T08:12:43;19.60;99.90
7844;DHT22;3967;48.702;9.326;2023-09-19T08:17:41;19.70;99.90
7844;DHT22;3967;48.702;9.326;2023-09-19T08:20:09;19.80;99.90
7844;DHT22;3967;48.702;9.326;2023-09-19T08:22:53;19.90;99.90
7844;DHT22;3967;48.702;9.326;2023-09-19T08:25:23;20.20;99.90
7844;DHT22;3967;48.702;9.326;2023-09-19T08:27:51;19.90;99.90
7844;DHT22;3967;48.702;9.326;2023-09-19T08:30:20;20.00;99.90
7844;DHT22;3967;48.702;9.326;2023-09-19T08:32:51;20.30;99.90
7844;DHT22;3967;48.702;9.326;2023-09-19T08:35:18;20.20;99.90
7844;DHT22;3967;48.702;9.326;2023-09-19T08:37:46;20.30;99.90
7844;DHT22;3967;48.702;9.326;2023-09-19T08:40:13;20.40;99.90
7844;DHT22;3967;48.702;9.326;2023-09-19T08:42:49;20.70;99.90
7844;DHT22;3967;48.702;9.326;2023-09-19T08:45:17;20.50;99.90
7844;DHT22;3967;48.702;9.326;2023-09-19T08:47:47;20.60;99.70
7844;DHT22;3967;48.702;9.326;2023-09-19T08:52:46;20.30;97.30
7844;DHT22;3967;48.702;9.326;2023-09-19T08:55:18;20.30;97.30
7844;DHT22;3967;48.702;9.326;2023-09-19T08:57:49;20.20;97.20
7844;DHT22;3967;48.702;9.326;2023-09-19T09:00:16;19.90;96.50
7844;DHT22;3967;48.702;9.326;2023-09-19T09:02:48;20.00;96.20
7844;DHT22;3967;48.702;9.326;2023-09-19T09:05:16;20.00;96.30
7844;DHT22;3967;48.702;9.326;2023-09-19T09:07:50;19.80;96.00
7844;DHT22;3967;48.702;9.326;2023-09-19T09:10:18;19.90;96.80
7844;DHT22;3967;48.702;9.326;2023-09-19T09:12:51;20.10;97.30
7844;DHT22;3967;48.702;9.326;2023-09-19T09:15:22;20.30;96.90
7844;DHT22;3967;48.702;9.326;2023-09-19T09:17:51;20.30;95.80
7844;DHT22;3967;48.702;9.326;2023-09-19T09:20:20;20.20;95.00
7844;DHT22;3967;48.702;9.326;2023-09-19T09:22:51;20.10;95.00
7844;DHT22;3967;48.702;9.326;2023-09-19T09:25:19;20.40;94.90
7844;DHT22;3967;48.702;9.326;2023-09-19T09:28:01;20.60;94.10
7844;DHT22;3967;48.702;9.326;2023-09-19T09:30:35;20.50;93.70
7844;DHT22;3967;48.702;9.326;2023-09-19T09:33:10;20.40;93.20
7844;DHT22;3967;48.702;9.326;2023-09-19T09:38:19;20.60;92.30
7844;DHT22;3967;48.702;9.326;2023-09-19T09:40:48;20.80;92.50
7844;DHT22;3967;48.702;9.326;2023-09-19T09:43:27;21.00;91.90
7844;DHT22;3967;48.702;9.326;2023-09-19T09:46:17;21.20;91.10
7844;DHT22;3967;48.702;9.326;2023-09-19T09:49:26;21.30;90.00
7844;DHT22;3967;48.702;9.326;2023-09-19T09:54:35;21.80;88.60
7844;DHT22;3967;48.702;9.326;2023-09-19T09:57:10;22.00;87.30
7844;DHT22;3967;48.702;9.326;2023-09-19T10:02:35;21.90;84.40
7844;DHT22;3967;48.702;9.326;2023-09-19T10:05:20;22.00;85.40
7844;DHT22;3967;48.702;9.326;2023-09-19T10:07:48;22.30;84.60
7844;DHT22;3967;48.702;9.326;2023-09-19T10:10:36;22.40;85.30
7844;DHT22;3967;48.702;9.326;2023-09-19T10:13:20;22.30;82.90
7844;DHT22;3967;48.702;9.326;2023-09-19T10:15:51;22.50;80.20
7844;DHT22;3967;48.702;9.326;2023-09-19T10:18:25;22.60;80.50
7844;DHT22;3967;48.702;9.326;2023-09-19T10:20:53;22.60;79.50
7844;DHT22;3967;48.702;9.326;2023-09-19T10:23:22;22.70;79.50
7844;DHT22;3967;48.702;9.326;2023-09-19T10:25:51;22.70;79.10
7844;DHT22;3967;48.702;9.326;2023-09-19T10:28:20;22.50;76.00
7844;DHT22;3967;48.702;9.326;2023-09-19T10:30:51;22.40;75.40
7844;DHT22;3967;48.702;9.326;2023-09-19T10:33:21;22.60;76.20
7844;DHT22;3967;48.702;9.326;2023-09-19T10:35:50;22.70;74.20
7844;DHT22;3967;48.702;9.326;2023-09-19T10:38:26;22.80;74.80
7844;DHT22;3967;48.702;9.326;2023-09-19T10:40:56;22.80;74.20
7844;DHT22;3967;48.702;9.326;2023-09-19T10:43:32;22.80;73.90
7844;DHT22;3967;48.702;9.326;2023-09-19T10:46:07;22.90;75.10
7844;DHT22;3967;48.702;9.326;2023-09-19T10:48:38;23.10;74.30
7844;DHT22;3967;48.702;9.326;2023-09-19T10:51:10;23.00;73.90
7844;DHT22;3967;48.702;9.326;2023-09-19T10:54:06;23.20;73.70
7844;DHT22;3967;48.702;9.326;2023-09-19T10:56:39;23.00;72.00
7844;DHT22;3967;48.702;9.326;2023-09-19T11:01:54;22.80;74.90
7844;DHT22;3967;48.702;9.326;2023-09-19T11:04:28;22.90;73.90
7844;DHT22;3967;48.702;9.326;2023-09-19T11:07:11;23.10;73.30
7844;DHT22;3967;48.702;9.326;2023-09-19T11:09:57;23.20;73.20
7844;DHT22;3967;48.702;9.326;2023-09-19T11:15:04;23.10;73.10
7844;DHT22;3967;48.702;9.326;2023-09-19T11:17:39;23.10;72.30
7844;DHT22;3967;48.702;9.326;2023-09-19T11:30:41;23.20;74.50
7844;DHT22;3967;48.702;9.326;2023-09-19T11:33:24;23.20;72.60
7844;DHT22;3967;48.702;9.326;2023-09-19T11:36:04;23.30;72.40
7844;DHT22;3967;48.702;9.326;2023-09-19T11:43:51;23.20;70.90
7844;DHT22;3967;48.702;9.326;2023-09-19T11:46:23;23.40;70.50
7844;DHT22;3967;48.702;9.326;2023-09-19T11:48:51;23.40;70.80
7844;DHT22;3967;48.702;9.326;2023-09-19T11:51:20;23.40;70.70
7844;DHT22;3967;48.702;9.326;2023-09-19T11:53:57;23.30;71.00
7844;DHT22;3967;48.702;9.326;2023-09-19T11:56:27;23.40;72.10
7844;DHT22;3967;48.702;9.326;2023-09-19T11:58:55;23.30;72.30
7844;DHT22;3967;48.702;9.326;2023-09-19T12:01:33;23.50;72.30
7844;DHT22;3967;48.702;9.326;2023-09-19T12:04:02;23.60;71.60
7844;DHT22;3967;48.702;9.326;2023-09-19T12:06:31;23.50;71.00
7844;DHT22;3967;48.702;9.326;2023-09-19T12:09:03;23.40;70.80
7844;DHT22;3967;48.702;9.326;2023-09-19T12:11:41;23.50;71.40
7844;DHT22;3967;48.702;9.326;2023-09-19T12:14:09;23.30;71.90
7844;DHT22;3967;48.702;9.326;2023-09-19T12:16:36;23.40;72.60
7844;DHT22;3967;48.702;9.326;2023-09-19T12:19:34;23.50;72.60
7844;DHT22;3967;48.702;9.326;2023-09-19T12:22:02;23.50;72.00
7844;DHT22;3967;48.702;9.326;2023-09-19T12:24:33;23.50;72.60
7844;DHT22;3967;48.702;9.326;2023-09-19T12:27:03;23.40;72.90
7844;DHT22;3967;48.702;9.326;2023-09-19T12:29:54;23.60;72.90
7844;DHT22;3967;48.702;9.326;2023-09-19T12:32:35;23.50;71.30
7844;DHT22;3967;48.702;9.326;2023-09-19T12:35:03;23.60;71.70
7844;DHT22;3967;48.702;9.326;2023-09-19T12:37:34;23.60;72.10
7844;DHT22;3967;48.702;9.326;2023-09-19T12:40:09;23.70;72.30
7844;DHT22;3967;48.702;9.326;2023-09-19T12:42:49;23.60;72.30
7844;DHT22;3967;48.702;9.326;2023-09-19T12:45:17;23.70;72.30
7844;DHT22;3967;48.702;9.326;2023-09-19T12:51:13;23.60;72.90
7844;DHT22;3967;48.702;9.326;2023-09-19T12:53:46;23.80;72.00
7844;DHT22;3967;48.702;9.326;2023-09-19T12:56:23;23.70;70.70
7844;DHT22;3967;48.702;9.326;2023-09-19T12:58:51;23.70;71.30
7844;DHT22;3967;48.702;9.326;2023-09-19T13:01:22;23.70;71.50
7844;DHT22;3967;48.702;9.326;2023-09-19T13:04:18;23.70;71.90
7844;DHT22;3967;48.702;9.326;2023-09-19T13:06:50;23.70;71.50
7844;DHT22;3967;48.702;9.326;2023-09-19T13:09:21;23.70;71.40
7844;DHT22;3967;48.702;9.326;2023-09-19T13:11:49;23.70;70.50
7844;DHT22;3967;48.702;9.326;2023-09-19T13:14:25;23.70;71.80
7844;DHT22;3967;48.702;9.326;2023-09-19T13:17:04;23.70;71.10
7844;DHT22;3967;48.702;9.326;2023-09-19T13:19:39;23.90;71.60
7844;DHT22;3967;48.702;9.326;2023-09-19T13:22:44;23.90;70.50
7844;DHT22;3967;48.702;9.326;2023-09-19T13:25:16;23.90;71.10
7844;DHT22;3967;48.702;9.326;2023-09-19T13:27:48;24.20;70.40
7844;DHT22;3967;48.702;9.326;2023-09-19T13:30:18;24.10;70.00
7844;DHT22;3967;48.702;9.326;2023-09-19T13:32:45;24.10;69.80
7844;DHT22;3967;48.702;9.326;2023-09-19T13:35:14;23.90;71.00
7844;DHT22;3967;48.702;9.326;2023-09-19T13:37:42;23.80;71.00
7844;DHT22;3967;48.702;9.326;2023-09-19T13:40:13;23.90;70.70
7844;DHT22;3967;48.702;9.326;2023-09-19T13:42:40;23.90;70.80
7844;DHT22;3967;48.702;9.326;2023-09-19T13:45:08;23.90;70.60
7844;DHT22;3967;48.702;9.326;2023-09-19T13:47:38;23.90;71.70
7844;DHT22;3967;48.702;9.326;2023-09-19T13:50:06;24.00;71.50
7844;DHT22;3967;48.702;9.326;2023-09-19T13:52:33;23.90;71.10
7844;DHT22;3967;48.702;9.326;2023-09-19T13:55:01;23.90;70.40
7844;DHT22;3967;48.702;9.326;2023-09-19T13:57:27;23.90;68.70
7844;DHT22;3967;48.702;9.326;2023-09-19T13:59:56;24.10;69.90
7844;DHT22;3967;48.702;9.326;2023-09-19T14:02:23;24.00;68.90
7844;DHT22;3967;48.702;9.326;2023-09-19T14:04:53;23.90;68.20
7844;DHT22;3967;48.702;9.326;2023-09-19T14:07:20;24.00;68.80
7844;DHT22;3967;48.702;9.326;2023-09-19T14:09:47;24.10;69.50
7844;DHT22;3967;48.702;9.326;2023-09-19T14:12:15;24.20;69.90
7844;DHT22;3967;48.702;9.326;2023-09-19T14:14:42;24.20;69.40
7844;DHT22;3967;48.702;9.326;2023-09-19T14:17:09;24.30;69.60
7844;DHT22;3967;48.702;9.326;2023-09-19T14:19:36;24.20;66.00
7844;DHT22;3967;48.702;9.326;2023-09-19T14:22:04;24.00;64.80
7844;DHT22;3967;48.702;9.326;2023-09-19T14:24:35;24.00;63.90
7844;DHT22;3967;48.702;9.326;2023-09-19T14:27:03;23.90;62.30
7844;DHT22;3967;48.702;9.326;2023-09-19T14:29:32;23.90;63.10
7844;DHT22;3967;48.702;9.326;2023-09-19T14:32:00;23.90;64.30
7844;DHT22;3967;48.702;9.326;2023-09-19T14:34:27;24.00;65.10
7844;DHT22;3967;48.702;9.326;2023-09-19T14:36:54;24.00;65.00
7844;DHT22;3967;48.702;9.326;2023-09-19T14:39:21;23.90;65.00
7844;DHT22;3967;48.702;9.326;2023-09-19T14:41:48;23.90;64.30
7844;DHT22;3967;48.702;9.326;2023-09-19T14:44:15;23.90;64.60
7844;DHT22;3967;48.702;9.326;2023-09-19T14:46:44;23.90;65.30
7844;DHT22;3967;48.702;9.326;2023-09-19T14:49:11;24.00;64.40
7844;DHT22;3967;48.702;9.326;2023-09-19T14:51:39;24.00;65.30
7844;DHT22;3967;48.702;9.326;2023-09-19T14:54:10;24.20;65.60
7844;DHT22;3967;48.702;9.326;2023-09-19T14:56:37;24.20;65.70
7844;DHT22;3967;48.702;9.326;2023-09-19T14:59:04;24.10;65.60
7844;DHT22;3967;48.702;9.326;2023-09-19T15:01:31;24.00;65.50
7844;DHT22;3967;48.702;9.326;2023-09-19T15:03:59;24.10;65.10
7844;DHT22;3967;48.702;9.326;2023-09-19T15:06:27;24.10;64.90
7844;DHT22;3967;48.702;9.326;2023-09-19T15:08:54;24.00;65.30
7844;DHT22;3967;48.702;9.326;2023-09-19T15:11:21;24.00;65.80
7844;DHT22;3967;48.702;9.326;2023-09-19T15:13:51;24.00;65.30
7844;DHT22;3967;48.702;9.326;2023-09-19T15:16:19;24.00;66.20
7844;DHT22;3967;48.702;9.326;2023-09-19T15:18:46;24.00;64.80
7844;DHT22;3967;48.702;9.326;2023-09-19T15:21:16;23.90;65.40
7844;DHT22;3967;48.702;9.326;2023-09-19T15:23:43;24.00;65.60
7844;DHT22;3967;48.702;9.326;2023-09-19T15:26:12;23.90;65.20
7844;DHT22;3967;48.702;9.326;2023-09-19T15:28:40;23.90;65.60
7844;DHT22;3967;48.702;9.326;2023-09-19T15:31:09;24.00;66.30
7844;DHT22;3967;48.702;9.326;2023-09-19T15:33:36;24.00;66.30
7844;DHT22;3967;48.702;9.326;2023-09-19T15:36:05;24.20;66.40
7844;DHT22;3967;48.702;9.326;2023-09-19T15:39:03;24.00;65.70
7844;DHT22;3967;48.702;9.326;2023-09-19T15:41:33;23.80;66.30
7844;DHT22;3967;48.702;9.326;2023-09-19T15:44:02;24.00;66.60
7844;DHT22;3967;48.702;9.326;2023-09-19T15:46:31;23.90;66.80
7844;DHT22;3967;48.702;9.326;2023-09-19T15:49:00;24.00;65.70
7844;DHT22;3967;48.702;9.326;2023-09-19T15:51:27;23.90;65.50
7844;DHT22;3967;48.702;9.326;2023-09-19T15:53:55;23.60;64.90
7844;DHT22;3967;48.702;9.326;2023-09-19T15:56:23;23.60;64.90
7844;DHT22;3967;48.702;9.326;2023-09-19T15:58:51;23.60;65.20
7844;DHT22;3967;48.702;9.326;2023-09-19T16:01:19;23.70;65.70
7844;DHT22;3967;48.702;9.326;2023-09-19T16:03:48;23.90;66.00
7844;DHT22;3967;48.702;9.326;2023-09-19T16:06:18;24.00;65.50
7844;DHT22;3967;48.702;9.326;2023-09-19T16:08:47;23.90;65.10
7844;DHT22;3967;48.702;9.326;2023-09-19T16:11:14;23.90;66.10
7844;DHT22;3967;48.702;9.326;2023-09-19T16:13:42;23.90;65.90
7844;DHT22;3967;48.702;9.326;2023-09-19T16:16:11;24.00;65.40
7844;DHT22;3967;48.702;9.326;2023-09-19T16:18:39;23.90;65.10
7844;DHT22;3967;48.702;9.326;2023-09-19T16:21:07;23.90;64.70
7844;DHT22;3967;48.702;9.326;2023-09-19T16:23:38;23.80;65.00
7844;DHT22;3967;48.702;9.326;2023-09-19T16:26:06;23.80;65.10
7844;DHT22;3967;48.702;9.326;2023-09-19T16:28:36;24.00;65.40
7844;DHT22;3967;48.702;9.326;2023-09-19T16:31:05;23.80;64.70
7844;DHT22;3967;48.702;9.326;2023-09-19T16:33:33;24.00;65.20
7844;DHT22;3967;48.702;9.326;2023-09-19T16:36:01;23.80;64.30
7844;DHT22;3967;48.702;9.326;2023-09-19T16:38:28;23.80;64.50
7844;DHT22;3967;48.702;9.326;2023-09-19T16:40:57;23.90;64.70
7844;DHT22;3967;48.702;9.326;2023-09-19T16:43:27;23.70;65.00
7844;DHT22;3967;48.702;9.326;2023-09-19T16:45:58;23.80;65.20
7844;DHT22;3967;48.702;9.326;2023-09-19T16:48:27;23.80;65.50
7844;DHT22;3967;48.702;9.326;2023-09-19T16:50:54;24.00;65.50
7844;DHT22;3967;48.702;9.326;2023-09-19T16:53:21;24.00;65.00
7844;DHT22;3967;48.702;9.326;2023-09-19T16:55:48;23.60;65.60
7844;DHT22;3967;48.702;9.326;2023-09-19T16:58:15;23.80;66.00
7844;DHT22;3967;48.702;9.326;2023-09-19T17:00:43;23.90;65.60
7844;DHT22;3967;48.702;9.326;2023-09-19T17:03:12;23.90;66.00
7844;DHT22;3967;48.702;9.326;2023-09-19T17:05:40;23.70;65.40
7844;DHT22;3967;48.702;9.326;2023-09-19T17:08:07;23.80;66.00
7844;DHT22;3967;48.702;9.326;2023-09-19T17:10:35;23.50;66.20